地図

経路データ

SID SEASON NUMBER BASIN SUBBASIN NAME ISO_TIME NATURE LAT LON WMO_WIND WMO_PRES WMO_AGENCY TRACK_TYPE DIST2LAND LANDFALL IFLAG USA_AGENCY USA_ATCF_ID USA_LAT USA_LON USA_RECORD USA_STATUS USA_WIND USA_PRES USA_SSHS USA_R34_NE USA_R34_SE USA_R34_SW USA_R34_NW USA_R50_NE USA_R50_SE USA_R50_SW USA_R50_NW USA_R64_NE USA_R64_SE USA_R64_SW USA_R64_NW USA_POCI USA_ROCI USA_RMW USA_EYE TOKYO_LAT TOKYO_LON TOKYO_GRADE TOKYO_WIND TOKYO_PRES TOKYO_R50_DIR TOKYO_R50_LONG TOKYO_R50_SHORT TOKYO_R30_DIR TOKYO_R30_LONG TOKYO_R30_SHORT TOKYO_LAND CMA_LAT CMA_LON CMA_CAT CMA_WIND CMA_PRES HKO_LAT HKO_LON HKO_CAT HKO_WIND HKO_PRES NEWDELHI_LAT NEWDELHI_LON NEWDELHI_GRADE NEWDELHI_WIND NEWDELHI_PRES NEWDELHI_CI NEWDELHI_DP NEWDELHI_POCI REUNION_LAT REUNION_LON REUNION_TYPE REUNION_WIND REUNION_PRES REUNION_TNUM REUNION_CI REUNION_RMW REUNION_R34_NE REUNION_R34_SE REUNION_R34_SW REUNION_R34_NW REUNION_R50_NE REUNION_R50_SE REUNION_R50_SW REUNION_R50_NW REUNION_R64_NE REUNION_R64_SE REUNION_R64_SW REUNION_R64_NW BOM_LAT BOM_LON BOM_TYPE BOM_WIND BOM_PRES BOM_TNUM BOM_CI BOM_RMW BOM_R34_NE BOM_R34_SE BOM_R34_SW BOM_R34_NW BOM_R50_NE BOM_R50_SE BOM_R50_SW BOM_R50_NW BOM_R64_NE BOM_R64_SE BOM_R64_SW BOM_R64_NW BOM_ROCI BOM_POCI BOM_EYE BOM_POS_METHOD BOM_PRES_METHOD NADI_LAT NADI_LON NADI_CAT NADI_WIND NADI_PRES WELLINGTON_LAT WELLINGTON_LON WELLINGTON_WIND WELLINGTON_PRES DS824_LAT DS824_LON DS824_STAGE DS824_WIND DS824_PRES TD9636_LAT TD9636_LON TD9636_STAGE TD9636_WIND TD9636_PRES TD9635_LAT TD9635_LON TD9635_WIND TD9635_PRES TD9635_ROCI NEUMANN_LAT NEUMANN_LON NEUMANN_CLASS NEUMANN_WIND NEUMANN_PRES MLC_LAT MLC_LON MLC_CLASS MLC_WIND MLC_PRES USA_GUST BOM_GUST BOM_GUST_PER REUNION_GUST REUNION_GUST_PER USA_SEAHGT USA_SEARAD_NE USA_SEARAD_SE USA_SEARAD_SW USA_SEARAD_NW STORM_SPEED STORM_DIR
1962040S16164 1962 15 SP MM NOT_NAMED 1962-02-08 12:00:00 TS -16.4000 163.600 main 339 299 O________OO___ jtwc_sh SH131962 -16.4000 163.600 -1 -16.4000 163.600 TC -16.4000 163.600 2 10 113
1962040S16164 1962 15 SP MM NOT_NAMED 1962-02-08 15:00:00 TS -16.5975 164.096 main 299 265 P________PP___ SH131962 -16.6028 164.102 -1 -16.6028 164.102 TC -16.5868 164.084 2 10 112
1962040S16164 1962 15 SP MM NOT_NAMED 1962-02-08 18:00:00 TS -16.7928 164.591 main 265 232 O________OP___ jtwc_sh SH131962 -16.8000 164.600 -1 -16.8000 164.600 TC -16.7785 164.574 2 10 112
1962040S16164 1962 15 SP MM NOT_NAMED 1962-02-08 21:00:00 TS -16.9885 165.088 main 232 201 P________PP___ SH131962 -16.9923 165.093 -1 -16.9923 165.093 TC -16.9809 165.078 2 10 113
1962040S16164 1962 15 SP MM NOT_NAMED 1962-02-09 00:00:00 TS -17.2000 165.600 main 201 171 O________OO_O_ jtwc_sh SH131962 -17.2000 165.600 -1 -17.2000 165.600 TC 35 -17.2000 165.600 2 -17.2000 165.600 TC 25 11 114
1962040S16164 1962 15 SP MM NOT_NAMED 1962-02-09 03:00:00 TS -17.4425 166.145 main 171 147 P________PP_P_ SH131962 -17.4423 166.128 -1 -17.4423 166.128 TC 35 -17.4390 166.147 2 -17.4505 166.207 TC 27 12 115
1962040S16164 1962 15 SP MM NOT_NAMED 1962-02-09 06:00:00 TS -17.6977 166.727 main 149 140 O________OP_O_ jtwc_sh SH131962 -17.7000 166.700 -1 -17.7000 166.700 TC 35 -17.6914 166.726 2 -17.7000 166.800 TC 30 13 114
1962040S16164 1962 15 SP MM NOT_NAMED 1962-02-09 09:00:00 TS -17.9531 167.340 main 158 156 P________PP_P_ SH131962 -17.9573 167.320 -1 -17.9573 167.320 TC 35 -17.9481 167.341 2 -17.9496 167.378 TC 32 13 113
1962040S16164 1962 15 SP MM NOT_NAMED 1962-02-09 12:00:00 TS -18.2000 168.000 main 180 180 O________OO_O_ jtwc_sh SH131962 -18.2000 168.000 -1 -18.2000 168.000 TC 35 -18.2000 168.000 2 -18.2000 168.000 TC 35 14 110
1962040S16164 1962 15 SP MM NOT_NAMED 1962-02-09 15:00:00 TS -18.4225 168.731 main 222 222 P________PP_P_ SH131962 -18.3999 168.735 -1 -18.3999 168.735 TC 35 -18.4326 168.727 2 -18.4575 168.728 TC 35 15 107
1962040S16164 1962 15 SP MM NOT_NAMED 1962-02-09 18:00:00 TS -18.6395 169.498 main 287 287 O________OP_O_ jtwc_sh SH131962 -18.6000 169.500 -1 -18.6000 169.500 TC 35 -18.6582 169.493 2 -18.7000 169.500 TC 35 15 107
1962040S16164 1962 15 SP MM NOT_NAMED 1962-02-09 21:00:00 TS -18.8698 170.266 main 369 369 P________PP_P_ SH131962 -18.8499 170.265 -1 -18.8499 170.265 TC 35 -18.8795 170.262 2 -18.8999 170.273 TC 35 15 108
1962040S16164 1962 15 SP MM NOT_NAMED 1962-02-10 00:00:00 TS -19.1000 171.000 main 439 439 O________OO_O_ jtwc_sh SH131962 -19.1000 171.000 -1 -19.1000 171.000 TC 35 -19.1000 171.000 2 -19.1000 171.000 TC 35 14 109
1962040S16164 1962 15 SP MM NOT_NAMED 1962-02-10 03:00:00 TS -19.3222 171.656 main 511 511 P________PP_P_ SH131962 -19.2997 171.673 -1 -19.2997 171.673 TC 35 -19.3400 171.665 2 -19.3495 171.615 TC 35 13 110
1962040S16164 1962 15 SP MM NOT_NAMED 1962-02-10 06:00:00 TS -19.5446 172.274 main 542 495 O________OP_O_ jtwc_sh SH131962 -19.5000 172.300 -1 -19.5000 172.300 TC 35 -19.5784 172.295 2 -19.6000 172.200 TC 35 13 112
1962040S16164 1962 15 SP MM NOT_NAMED 1962-02-10 09:00:00 TS -19.7830 172.888 main 495 448 P________PP_P_ SH131962 -19.7571 172.900 -1 -19.7571 172.900 TC 35 -19.8027 172.903 2 -19.8149 172.850 TC 35 12 112
1962040S16164 1962 15 SP MM NOT_NAMED 1962-02-10 12:00:00 TS -20.0000 173.500 main 448 408 O________OO_O_ jtwc_sh SH131962 -20.0000 173.500 -1 -20.0000 173.500 TC 35 -20.0000 173.500 2 -20.0000 173.500 TC 35 13 108
1962040S16164 1962 15 SP MM NOT_NAMED 1962-02-10 15:00:00 TS -20.1711 174.152 main 399 359 P________PP_P_ SH131962 -20.1725 174.158 -1 -20.1725 174.158 TC 35 -20.1747 174.184 2 -20.1647 174.108 TC 35 12 104
1962040S16164 1962 15 SP MM NOT_NAMED 1962-02-10 18:00:00 TS -20.3046 174.787 main 359 325 O________OP_O_ jtwc_sh SH131962 -20.3000 174.800 -1 -20.3000 174.800 TC 35 -20.3186 174.850 2 -20.3000 174.700 TC 35 12 102
1962040S16164 1962 15 SP MM NOT_NAMED 1962-02-10 21:00:00 TS -20.4240 175.411 main 325 306 P________PP_P_ SH131962 -20.4226 175.417 -1 -20.4226 175.417 TC 35 -20.4280 175.441 2 -20.4228 175.367 TC 37 11 101
1962040S16164 1962 15 SP MM NOT_NAMED 1962-02-11 00:00:00 TS -20.5000 175.900 main 306 296 O________OO_O_ jtwc_sh SH131962 -20.5000 175.900 -1 -20.5000 175.900 TC 35 -20.5000 175.900 2 -20.5000 175.900 TC 40 7 98
1962040S16164 1962 15 SP MM NOT_NAMED 1962-02-11 03:00:00 TS -20.5207 176.157 main 292 288 P________PP_P_ SH131962 -20.5147 176.175 -1 -20.5147 176.175 TC 35 -20.5386 176.154 2 -20.5146 176.125 TC 42 3 92
1962040S16164 1962 15 SP MM NOT_NAMED 1962-02-11 06:00:00 TS -20.5109 176.270 main 288 288 O________OP_O_ jtwc_sh SH131962 -20.5000 176.300 -1 -20.5000 176.300 TC 35 -20.5434 176.278 2 -20.5000 176.200 TC 45 2 85
1962040S16164 1962 15 SP MM NOT_NAMED 1962-02-11 09:00:00 TS -20.5066 176.336 main 288 284 P________PP_P_ SH131962 -20.4999 176.357 -1 -20.4999 176.357 TC 35 -20.5266 176.338 2 -20.4999 176.292 TC 45 1 85
1962040S16164 1962 15 SP MM NOT_NAMED 1962-02-11 12:00:00 TS -20.5000 176.400 main 284 281 O________OO_O_ jtwc_sh SH131962 -20.5000 176.400 -1 -20.5000 176.400 TC 35 -20.5000 176.400 2 -20.5000 176.400 TC 45 2 89
1962040S16164 1962 15 SP MM NOT_NAMED 1962-02-11 15:00:00 TS -20.5041 176.542 main 281 274 P________PP_P_ SH131962 -20.5075 176.527 -1 -20.5075 176.527 TC 35 -20.4940 176.520 2 -20.5075 176.592 TC 42 3 89
1962040S16164 1962 15 SP MM NOT_NAMED 1962-02-11 18:00:00 TS -20.4948 176.715 main 274 267 O________OP_O_ jtwc_sh SH131962 -20.5000 176.700 -1 -20.5000 176.700 TC 35 -20.4793 176.660 2 -20.5000 176.800 TC 40 3 81
1962040S16164 1962 15 SP MM NOT_NAMED 1962-02-11 21:00:00 TS -20.4574 176.871 main 267 249 P________PP_P_ SH131962 -20.4574 176.863 -1 -20.4574 176.863 TC 35 -20.4500 176.845 2 -20.4648 176.912 TC 37 4 75
1962040S16164 1962 15 SP MM NOT_NAMED 1962-02-12 00:00:00 TS -20.4000 177.100 main 249 238 O________OO_O_ jtwc_sh SH131962 -20.4000 177.100 -1 -20.4000 177.100 TC 35 -20.4000 177.100 2 -20.4000 177.100 TC 35 6 79
1962040S16164 1962 15 SP MM NOT_NAMED 1962-02-12 03:00:00 TS -20.3472 177.482 main 227 223 P________PP_P_ SH131962 -20.3650 177.462 -1 -20.3650 177.462 TC 35 -20.3509 177.490 2 -20.3077 177.513 TC 35 8 81
1962040S16164 1962 15 SP MM NOT_NAMED 1962-02-12 06:00:00 TS -20.2691 177.936 main 223 212 O________OP_O_ jtwc_sh SH131962 -20.3000 177.900 -1 -20.3000 177.900 TC 35 -20.2762 177.943 2 -20.2000 178.000 TC 35 9 77
1962040S16164 1962 15 SP MM NOT_NAMED 1962-02-12 09:00:00 TS -20.1559 178.394 main 213 197 P________PP_P_ SH131962 -20.1726 178.373 -1 -20.1726 178.373 TC 35 -20.1634 178.399 2 -20.1150 178.430 TC 35 9 72
1962040S16164 1962 15 SP MM NOT_NAMED 1962-02-12 12:00:00 TS -20.0000 178.800 main 200 192 O________OO_O_ jtwc_sh SH131962 -20.0000 178.800 -1 -20.0000 178.800 TC 35 -20.0000 178.800 2 -20.0000 178.800 TC 35 7 63
1962040S16164 1962 15 SP MM NOT_NAMED 1962-02-12 15:00:00 TS -19.8190 179.094 main 192 179 P________PP_P_ SH131962 -19.8299 179.095 -1 -19.8299 179.095 TC 35 -19.7790 179.101 2 -19.8374 179.087 TC 35 6 48
1962040S16164 1962 15 SP MM NOT_NAMED 1962-02-12 18:00:00 TS -19.5779 179.304 main 179 153 O________OP_O_ jtwc_sh SH131962 -19.6000 179.300 -1 -19.6000 179.300 TC 35 -19.5117 179.315 2 -19.6000 179.300 TC 35 7 32
1962040S16164 1962 15 SP MM NOT_NAMED 1962-02-12 21:00:00 TS -19.2609 179.464 main 158 130 P________PP_P_ SH131962 -19.2776 179.460 -1 -19.2776 179.460 TC 35 -19.2136 179.472 2 -19.2750 179.463 TC 35 7 23
1962040S16164 1962 15 SP MM NOT_NAMED 1962-02-13 00:00:00 TS -18.9000 179.600 main 130 O________OO_O_ jtwc_sh SH131962 -18.9000 179.600 -1 -18.9000 179.600 TC 35 -18.9000 179.600 2 -18.9000 179.600 TC 35 8 20

デジタル台風データ・検索

IBTrACS Databaseについて

本データベースは、米国NOAAが公開する1842年以降の世界の熱帯低気圧のベストトラックデータアーカイブInternational Best Track Archive for Climate Stewardship (IBTrACS)を、ウェブで閲覧しやすい形式に変換したものです。

最終更新日:2021-10-27